createdAt,value
2023-02-19T00:45:34.960Z,47.18
2023-02-19T00:48:02.626Z,47.25
2023-02-19T00:50:30.242Z,47.24
2023-02-19T00:52:57.821Z,47.22
2023-02-19T00:55:25.449Z,47.08
2023-02-19T00:57:53.035Z,47.22
2023-02-19T01:45:53.324Z,47.09
2023-02-19T01:48:21.804Z,47.04
2023-02-19T01:50:50.387Z,46.86
2023-02-19T01:53:19.597Z,47.00
2023-02-19T01:55:48.473Z,46.98
2023-02-19T01:58:16.371Z,46.95
2023-02-19T02:47:44.863Z,47.03
2023-02-19T02:50:14.370Z,46.93
2023-02-19T02:53:00.222Z,46.87
2023-02-19T02:55:27.809Z,46.95
2023-02-19T02:57:55.435Z,46.90
2023-02-19T03:47:21.144Z,45.61
2023-02-19T03:49:49.999Z,45.60
2023-02-19T03:52:20.421Z,45.61
2023-02-19T03:54:49.037Z,45.45
2023-02-19T03:57:18.073Z,45.45
2023-02-19T03:59:47.550Z,45.28
2023-02-19T04:46:09.384Z,44.64
2023-02-19T04:48:37.520Z,44.60
2023-02-19T04:51:06.265Z,44.58
2023-02-19T04:53:33.934Z,44.72
2023-02-19T04:56:06.769Z,44.74
2023-02-19T04:58:34.665Z,44.61
2023-02-19T05:47:57.818Z,44.73
2023-02-19T05:50:25.436Z,44.57
2023-02-19T05:52:53.099Z,44.60
2023-02-19T05:55:20.779Z,44.52
2023-02-19T05:57:49.002Z,44.59
2023-02-19T06:00:17.206Z,44.59
2023-02-19T06:02:45.069Z,44.87
2023-02-19T06:05:14.120Z,45.00
2023-02-19T06:07:42.841Z,45.29
2023-02-19T06:10:10.643Z,45.29
2023-02-19T06:12:38.256Z,45.30
2023-02-19T06:15:06.358Z,45.29
2023-02-19T06:17:33.931Z,45.15
2023-02-19T06:20:01.679Z,45.13
2023-02-19T06:22:30.681Z,45.32
2023-02-19T06:24:58.307Z,45.24
2023-02-19T06:27:25.932Z,45.40
2023-02-19T06:29:53.794Z,45.61
2023-02-19T06:32:21.663Z,45.59
2023-02-19T06:34:49.382Z,45.58
2023-02-19T06:37:17.180Z,45.65
2023-02-19T06:39:46.250Z,45.69
2023-02-19T06:42:14.081Z,45.42
2023-02-19T06:44:41.902Z,45.68
2023-02-19T06:47:09.545Z,45.65
2023-02-19T06:49:37.490Z,45.48
2023-02-19T06:52:05.300Z,45.56
2023-02-19T06:54:33.453Z,45.64
2023-02-19T06:57:02.544Z,45.57
2023-02-19T06:59:30.174Z,45.40
2023-02-19T07:01:57.846Z,45.39
2023-02-19T07:04:25.756Z,45.45
2023-02-19T07:06:53.692Z,45.41
2023-02-19T07:09:21.521Z,45.48
2023-02-19T07:11:49.107Z,45.38
2023-02-19T07:14:18.187Z,45.43
2023-02-19T07:16:47.334Z,45.18
2023-02-19T07:19:15.112Z,45.18
2023-02-19T07:21:42.713Z,45.20
2023-02-19T07:24:10.532Z,45.14
2023-02-19T07:26:38.335Z,45.14
2023-02-19T07:29:06.201Z,45.16
2023-02-19T07:31:35.582Z,45.32
2023-02-19T07:34:03.565Z,45.12
2023-02-19T07:36:31.382Z,45.13
2023-02-19T07:38:59.333Z,45.07
2023-02-19T07:41:27.115Z,44.94
2023-02-19T07:43:57.836Z,45.03
2023-02-19T07:46:25.534Z,44.98
2023-02-19T07:48:54.610Z,45.11
2023-02-19T07:51:22.496Z,45.07
2023-02-19T07:53:50.469Z,44.90
2023-02-19T07:56:18.104Z,44.62
2023-02-19T07:58:46.430Z,44.77
2023-02-19T08:01:15.254Z,44.67
2023-02-19T08:03:42.132Z,44.76
2023-02-19T08:06:12.112Z,44.52
2023-02-19T08:08:39.820Z,44.51
2023-02-19T08:11:25.057Z,44.55
2023-02-19T08:13:53.278Z,44.51
2023-02-19T08:16:33.144Z,44.47
2023-02-19T08:19:08.968Z,44.59
2023-02-19T08:21:38.266Z,44.43
2023-02-19T08:24:06.714Z,44.17
2023-02-19T08:26:34.425Z,44.21
2023-02-19T08:29:02.075Z,44.33
2023-02-19T08:31:29.812Z,44.22
2023-02-19T08:33:57.468Z,44.25
2023-02-19T08:36:25.079Z,44.13
2023-02-19T08:38:54.551Z,44.04
2023-02-19T08:41:22.577Z,44.06
2023-02-19T08:43:50.342Z,43.96
2023-02-19T08:46:18.573Z,43.97
2023-02-19T08:48:46.257Z,43.83
2023-02-19T08:51:14.211Z,43.84
2023-02-19T08:53:42.148Z,43.90
2023-02-19T08:56:11.850Z,43.68
2023-02-19T08:58:40.626Z,43.69
2023-02-19T09:01:09.849Z,43.82
2023-02-19T09:03:38.083Z,43.72
2023-02-19T09:06:06.376Z,43.74
2023-02-19T09:08:34.290Z,43.70
2023-02-19T09:11:02.442Z,43.60
2023-02-19T09:13:31.601Z,43.51
2023-02-19T09:15:59.401Z,43.70
2023-02-19T09:18:27.207Z,43.65
2023-02-19T09:20:55.156Z,43.77
2023-02-19T09:23:23.025Z,43.74
2023-02-19T09:25:50.666Z,43.85
2023-02-19T09:28:18.492Z,43.76
2023-02-19T09:30:47.533Z,43.59
2023-02-19T09:33:15.250Z,43.45
2023-02-19T09:35:42.995Z,43.45
2023-02-19T09:38:11.314Z,43.35
2023-02-19T09:40:39.649Z,43.57
2023-02-19T09:43:07.532Z,43.64
2023-02-19T09:45:35.255Z,43.61
2023-02-19T09:48:06.315Z,43.50
2023-02-19T09:50:37.539Z,43.52
2023-02-19T09:53:05.960Z,43.48
2023-02-19T09:55:36.219Z,43.45
2023-02-19T09:58:04.619Z,43.42
2023-02-19T10:00:33.034Z,43.37
2023-02-19T10:03:03.070Z,43.33
2023-02-19T10:05:32.172Z,43.50
2023-02-19T10:08:00.133Z,43.18
2023-02-19T10:10:31.814Z,43.32
2023-02-19T10:13:01.226Z,43.25
2023-02-19T10:15:30.972Z,43.30
2023-02-19T10:17:58.776Z,43.30
2023-02-19T10:20:27.844Z,43.21
2023-02-19T10:22:58.896Z,43.00
2023-02-19T10:25:26.684Z,42.91
2023-02-19T10:27:54.598Z,42.81
2023-02-19T10:30:23.991Z,42.81
2023-02-19T10:33:01.871Z,42.85
2023-02-19T10:35:29.951Z,42.70
2023-02-19T10:37:59.155Z,42.73
2023-02-19T10:40:27.260Z,42.66
2023-02-19T10:42:56.124Z,42.52
2023-02-19T10:45:24.425Z,42.59
2023-02-19T10:47:52.350Z,42.39
2023-02-19T10:50:21.734Z,42.38
2023-02-19T10:52:52.335Z,42.50
2023-02-19T10:55:28.322Z,42.41
2023-02-19T10:57:56.432Z,42.40
2023-02-19T11:00:26.733Z,42.42
2023-02-19T11:03:13.202Z,42.28
2023-02-19T11:05:41.393Z,42.32
2023-02-19T11:08:17.111Z,42.29
2023-02-19T11:10:46.138Z,42.10
2023-02-19T11:13:14.757Z,42.23
2023-02-19T11:15:42.296Z,42.25
2023-02-19T11:18:16.295Z,42.34
2023-02-19T11:20:46.484Z,42.38
2023-02-19T11:23:15.081Z,42.38
2023-02-19T11:25:46.961Z,42.61
2023-02-19T11:28:21.700Z,42.56
2023-02-19T11:30:49.646Z,42.57
2023-02-19T11:33:34.917Z,42.56
2023-02-19T11:36:17.593Z,42.51
2023-02-19T11:38:45.207Z,42.15
2023-02-19T11:41:15.114Z,42.33
2023-02-19T11:43:51.241Z,41.99
2023-02-19T11:46:20.729Z,41.96
2023-02-19T11:48:59.603Z,41.89
2023-02-19T11:51:32.165Z,41.91
2023-02-19T11:54:02.158Z,41.76
2023-02-19T11:56:34.050Z,41.73
2023-02-19T11:59:02.363Z,41.86
2023-02-19T12:01:33.348Z,41.79
2023-02-19T12:04:05.818Z,41.99
2023-02-19T12:06:34.436Z,41.98
2023-02-19T12:09:17.128Z,41.94
2023-02-19T12:11:59.532Z,41.87
2023-02-19T12:14:46.426Z,41.73
2023-02-19T12:17:15.779Z,41.53
2023-02-19T12:19:45.936Z,41.42
2023-02-19T12:22:19.504Z,41.20
2023-02-19T12:24:53.284Z,41.26
2023-02-19T12:27:25.030Z,41.17
2023-02-19T12:30:10.506Z,40.96
2023-02-19T12:32:41.709Z,41.00
2023-02-19T12:35:22.632Z,41.00
2023-02-19T12:37:52.273Z,40.99
2023-02-19T12:40:25.969Z,40.99
2023-02-19T12:42:58.475Z,40.92
2023-02-19T12:45:28.019Z,40.76
2023-02-19T12:47:58.554Z,40.58
2023-02-19T12:50:26.621Z,40.67
2023-02-19T12:52:55.439Z,40.63
2023-02-19T12:55:23.610Z,40.48
2023-02-19T12:57:51.304Z,40.48
2023-02-19T13:00:26.387Z,40.59
2023-02-19T13:02:55.306Z,40.29
2023-02-19T13:05:24.350Z,40.38
2023-02-19T13:07:54.482Z,40.43
2023-02-19T13:10:25.328Z,40.27
2023-02-19T13:12:53.117Z,40.21
2023-02-19T13:15:22.227Z,40.15
2023-02-19T13:17:51.746Z,40.05
2023-02-19T13:20:25.754Z,40.25
2023-02-19T13:23:12.435Z,40.30
2023-02-19T13:25:44.132Z,40.06
2023-02-19T13:28:14.340Z,40.11
2023-02-19T13:30:44.719Z,40.06
2023-02-19T13:33:22.532Z,39.97
2023-02-19T13:36:08.301Z,40.04
2023-02-19T13:38:37.989Z,39.80
2023-02-19T13:41:06.003Z,39.83
2023-02-19T13:43:35.611Z,39.80
2023-02-19T13:46:04.021Z,39.92
2023-02-19T13:48:33.504Z,39.75
2023-02-19T13:51:21.539Z,39.74
2023-02-19T13:53:57.513Z,39.33
2023-02-19T13:56:37.723Z,39.56
2023-02-19T13:59:15.185Z,39.39
2023-02-19T14:02:16.638Z,39.35
2023-02-19T14:04:51.522Z,39.47
2023-02-19T14:07:46.079Z,39.39
2023-02-19T14:10:14.168Z,39.29
2023-02-19T14:12:41.972Z,39.44
2023-02-19T14:15:28.259Z,39.57
2023-02-19T14:17:56.103Z,39.54
2023-02-19T14:20:47.711Z,39.50
2023-02-19T14:23:17.605Z,39.49
2023-02-19T14:25:56.116Z,39.32
2023-02-19T14:28:36.664Z,39.43
2023-02-19T14:31:09.710Z,39.69
2023-02-19T14:33:40.249Z,39.57
2023-02-19T14:36:13.320Z,39.82
2023-02-19T14:38:43.371Z,39.72
2023-02-19T14:41:11.707Z,39.49
2023-02-19T14:43:39.570Z,39.43
2023-02-19T14:46:08.840Z,39.45
2023-02-19T14:48:37.773Z,39.21
2023-02-19T14:51:06.069Z,39.34
2023-02-19T14:53:33.755Z,39.17
2023-02-19T14:56:03.650Z,39.15
2023-02-19T14:58:31.736Z,39.20
2023-02-19T15:00:59.379Z,39.47
2023-02-19T15:03:31.208Z,39.36
2023-02-19T15:05:59.958Z,39.51
2023-02-19T15:08:28.920Z,39.37
2023-02-19T15:10:56.839Z,39.37
2023-02-19T15:13:26.142Z,39.28
2023-02-19T15:15:55.219Z,39.33
2023-02-19T15:18:23.662Z,39.40
2023-02-19T15:20:51.294Z,39.44
2023-02-19T15:23:19.890Z,39.65
2023-02-19T15:25:48.092Z,39.90
2023-02-19T15:28:23.267Z,39.84
2023-02-19T15:30:52.317Z,39.69
2023-02-19T15:33:20.457Z,39.59
2023-02-19T15:35:49.248Z,39.60
2023-02-19T15:38:16.898Z,39.27
2023-02-19T15:40:45.218Z,39.35
2023-02-19T15:43:15.728Z,39.38
2023-02-19T15:45:43.307Z,39.29
2023-02-19T15:48:13.185Z,39.49
2023-02-19T15:50:41.275Z,39.59
2023-02-19T15:53:10.152Z,39.62
2023-02-19T15:55:38.241Z,39.48
2023-02-19T15:58:08.599Z,39.41
2023-02-19T16:00:37.540Z,39.32
2023-02-19T16:03:05.574Z,39.42
2023-02-19T16:05:40.082Z,39.70
2023-02-19T16:08:08.773Z,39.56
2023-02-19T16:10:36.614Z,39.72
2023-02-19T16:13:04.612Z,39.77
2023-02-19T16:15:33.095Z,39.82
2023-02-19T16:18:00.894Z,40.04
2023-02-19T16:20:28.989Z,39.91
2023-02-19T16:22:59.716Z,39.90
2023-02-19T16:25:28.891Z,39.74
2023-02-19T16:27:56.610Z,40.03
2023-02-19T16:30:26.352Z,39.97
2023-02-19T16:33:08.860Z,40.17
2023-02-19T16:35:36.830Z,40.31
2023-02-19T16:38:12.522Z,40.26
2023-02-19T16:40:55.165Z,40.12
2023-02-19T16:43:26.570Z,40.36
2023-02-19T16:45:54.323Z,40.32
2023-02-19T16:48:22.393Z,40.37
2023-02-19T16:50:50.063Z,40.75
2023-02-19T16:53:20.276Z,40.64
2023-02-19T16:55:48.075Z,40.83
2023-02-19T16:58:15.713Z,41.23
2023-02-19T17:00:43.418Z,41.61
2023-02-19T17:03:11.669Z,41.77
2023-02-19T17:05:39.437Z,41.98
2023-02-19T17:08:09.714Z,42.28
2023-02-19T17:10:38.728Z,42.42
2023-02-19T17:13:06.311Z,42.34
2023-02-19T17:15:34.222Z,42.70
2023-02-19T17:18:01.837Z,42.81
2023-02-19T17:20:30.594Z,42.65
2023-02-19T17:22:59.002Z,42.61
2023-02-19T17:25:26.774Z,42.30
2023-02-19T17:27:55.778Z,42.34
2023-02-19T17:30:25.283Z,42.52
2023-02-19T17:32:53.025Z,42.18
2023-02-19T17:35:20.712Z,42.13
2023-02-19T17:37:48.597Z,42.14
2023-02-19T17:40:31.786Z,42.17
2023-02-19T17:43:01.086Z,41.97
2023-02-19T17:45:28.729Z,42.33
2023-02-19T17:47:56.304Z,42.51
2023-02-19T17:50:24.880Z,42.54
2023-02-19T17:52:52.607Z,42.70
2023-02-19T17:55:20.311Z,42.84
2023-02-19T17:57:48.120Z,42.67
2023-02-19T18:00:17.889Z,42.91
2023-02-19T18:02:45.636Z,42.94
2023-02-19T18:05:13.370Z,42.86
2023-02-19T18:07:41.088Z,42.68
2023-02-19T18:10:09.271Z,42.97
2023-02-19T18:12:36.883Z,42.69
2023-02-19T18:15:04.612Z,42.83
2023-02-19T18:17:33.591Z,42.80
2023-02-19T18:20:01.222Z,42.78
2023-02-19T18:22:28.795Z,42.48
2023-02-19T18:24:56.443Z,42.36
2023-02-19T18:27:24.466Z,42.41
2023-02-19T18:29:52.681Z,42.27
2023-02-19T18:32:20.454Z,42.45
2023-02-19T18:34:51.456Z,42.47
2023-02-19T18:37:19.154Z,42.21
2023-02-19T18:39:46.815Z,42.29
2023-02-19T18:42:14.707Z,42.20
2023-02-19T18:44:42.526Z,41.96
2023-02-19T18:47:11.398Z,42.14
2023-02-19T18:49:38.984Z,42.07
2023-02-19T18:52:07.904Z,42.03
2023-02-19T18:54:35.632Z,41.88
2023-02-19T18:57:04.454Z,41.89
2023-02-19T18:59:32.196Z,41.77
2023-02-19T19:02:00.145Z,41.63
2023-02-19T19:04:29.098Z,41.61
2023-02-19T19:06:56.870Z,41.49
2023-02-19T19:09:25.944Z,41.79
2023-02-19T19:11:53.614Z,41.99
2023-02-19T19:14:21.218Z,42.17
2023-02-19T19:16:48.803Z,41.86
2023-02-19T19:19:16.539Z,42.12
2023-02-19T19:21:44.213Z,41.94
2023-02-19T19:24:12.957Z,41.93
2023-02-19T19:26:45.984Z,41.81
2023-02-19T19:29:14.487Z,41.98
2023-02-19T19:31:42.270Z,42.00
2023-02-19T19:34:09.919Z,42.13
2023-02-19T19:36:37.626Z,42.32
2023-02-19T19:39:05.203Z,42.54
2023-02-19T19:41:32.828Z,42.60
2023-02-19T19:44:04.470Z,42.60
2023-02-19T19:46:32.176Z,42.66
2023-02-19T19:48:59.989Z,42.68
2023-02-19T19:51:31.608Z,42.60
2023-02-19T19:53:59.485Z,42.73
2023-02-19T19:56:27.181Z,42.69
2023-02-19T19:58:54.818Z,42.56
2023-02-19T20:01:23.879Z,42.58
2023-02-19T20:03:52.243Z,42.46
2023-02-19T20:06:26.999Z,42.43
2023-02-19T20:08:54.674Z,42.40
2023-02-19T20:11:22.379Z,42.41
2023-02-19T20:13:49.937Z,42.34
2023-02-19T20:16:17.558Z,42.38
2023-02-19T20:18:46.524Z,42.27
2023-02-19T20:21:14.514Z,42.29
2023-02-19T20:23:42.348Z,42.27
2023-02-19T20:26:10.071Z,41.80
2023-02-19T20:28:37.839Z,41.85
2023-02-19T20:31:05.836Z,41.84
2023-02-19T20:33:33.622Z,41.94
2023-02-19T20:36:03.498Z,42.11
2023-02-19T20:38:31.319Z,42.14
2023-02-19T20:40:59.312Z,42.14
2023-02-19T20:43:28.533Z,42.04
2023-02-19T20:45:56.469Z,41.98
2023-02-19T20:48:24.102Z,41.77
2023-02-19T20:50:51.728Z,41.43
2023-02-19T20:53:20.779Z,41.72
2023-02-19T20:55:48.360Z,41.74
2023-02-19T20:58:16.160Z,41.69
2023-02-19T21:00:43.742Z,41.60
2023-02-19T21:03:11.745Z,41.92
2023-02-19T21:05:39.864Z,41.74
2023-02-19T21:08:07.536Z,41.79
2023-02-19T21:10:36.738Z,41.79
2023-02-19T21:13:04.449Z,41.70
2023-02-19T21:15:32.063Z,41.82
2023-02-19T21:17:59.937Z,41.67
2023-02-19T21:20:27.675Z,41.71
2023-02-19T21:22:55.421Z,41.85
2023-02-19T21:25:23.082Z,41.73
2023-02-19T21:27:52.058Z,41.46
2023-02-19T21:30:19.859Z,42.02
2023-02-19T21:32:47.745Z,41.96
2023-02-19T21:35:15.551Z,42.20
2023-02-19T21:37:44.151Z,42.39
2023-02-19T21:40:12.478Z,42.29
2023-02-19T21:42:40.330Z,42.39
2023-02-19T21:45:09.560Z,42.38
2023-02-19T21:47:37.153Z,42.10
2023-02-19T21:50:05.041Z,42.60
2023-02-19T21:52:32.902Z,42.42
2023-02-19T21:55:00.786Z,42.49
2023-02-19T21:57:28.558Z,42.41
2023-02-19T21:59:56.388Z,42.32
2023-02-19T22:02:26.129Z,42.17
2023-02-19T22:04:54.612Z,42.32
2023-02-19T22:07:22.470Z,42.40
2023-02-19T22:09:50.475Z,42.43
2023-02-19T22:12:18.186Z,42.46
2023-02-19T22:14:46.178Z,42.46
2023-02-19T22:17:14.182Z,42.62
2023-02-19T22:19:43.707Z,42.70
2023-02-19T22:22:11.562Z,42.54
2023-02-19T22:24:39.125Z,42.49
2023-02-19T22:27:06.671Z,42.68
2023-02-19T22:29:34.672Z,42.78
2023-02-19T22:32:02.517Z,42.73
2023-02-19T22:34:30.311Z,42.40
2023-02-19T22:36:59.404Z,42.49
2023-02-19T22:39:30.516Z,42.29
2023-02-19T22:41:58.116Z,42.17
2023-02-19T22:44:25.853Z,42.04
2023-02-19T22:46:54.080Z,42.09
2023-02-19T22:49:22.120Z,42.00
2023-02-19T22:51:50.839Z,42.00
2023-02-19T22:54:21.887Z,41.99
2023-02-19T22:56:49.502Z,41.91
2023-02-19T22:59:17.138Z,41.86
2023-02-19T23:01:44.751Z,41.73
2023-02-19T23:04:12.386Z,41.83
2023-02-19T23:06:41.426Z,41.75
2023-02-19T23:09:11.050Z,41.62
2023-02-19T23:11:40.197Z,41.66
2023-02-19T23:14:07.812Z,42.01
2023-02-19T23:16:36.718Z,41.96
2023-02-19T23:19:04.894Z,42.18
2023-02-19T23:21:32.667Z,41.74
2023-02-19T23:24:00.259Z,41.49
2023-02-19T23:26:27.796Z,41.58
2023-02-19T23:28:56.792Z,41.54
2023-02-19T23:31:26.035Z,41.78
2023-02-19T23:33:53.664Z,42.10
2023-02-19T23:36:23.687Z,42.09
2023-02-19T23:38:51.456Z,42.17
2023-02-19T23:41:19.111Z,42.34
2023-02-19T23:43:46.792Z,42.26
2023-02-19T23:46:17.323Z,42.43
2023-02-19T23:48:45.937Z,42.29
2023-02-19T23:51:13.593Z,42.47
2023-02-19T23:53:41.177Z,42.51
2023-02-19T23:56:08.800Z,42.51
2023-02-19T23:58:36.584Z,42.50
